createdAt,value
2022-07-28T00:02:28.784Z,100.00
2022-07-28T00:05:30.347Z,100.00
2022-07-28T00:08:32.559Z,100.00
2022-07-28T00:11:34.037Z,100.00
2022-07-28T00:14:51.753Z,100.00
2022-07-28T00:17:53.296Z,91.83
2022-07-28T00:20:54.824Z,100.00
2022-07-28T00:23:57.080Z,100.00
2022-07-28T00:26:59.891Z,96.98
2022-07-28T00:30:02.054Z,100.00
2022-07-28T00:33:03.605Z,99.97
2022-07-28T00:36:07.237Z,100.00
2022-07-28T00:39:11.910Z,100.00
2022-07-28T00:42:17.930Z,100.00
2022-07-28T00:45:19.404Z,100.00
2022-07-28T00:48:20.878Z,100.00
2022-07-28T00:51:25.311Z,100.00
2022-07-28T00:54:26.849Z,100.00
2022-07-28T00:57:28.360Z,100.00
2022-07-28T01:00:29.920Z,98.10
2022-07-28T01:03:33.052Z,100.00
2022-07-28T01:06:58.648Z,100.00
2022-07-28T01:10:08.359Z,100.00
2022-07-28T01:13:32.900Z,100.00
2022-07-28T01:16:42.832Z,100.00
2022-07-28T01:20:10.225Z,100.00
2022-07-28T01:23:11.616Z,100.00
2022-07-28T01:26:42.827Z,100.00
2022-07-28T01:30:05.207Z,100.00
2022-07-28T01:33:18.076Z,100.00
2022-07-28T01:36:25.400Z,100.00
2022-07-28T01:39:32.190Z,100.00
2022-07-28T01:42:43.968Z,100.00
2022-07-28T01:45:46.494Z,100.00
2022-07-28T01:48:50.504Z,100.00
2022-07-28T01:51:53.854Z,100.00
2022-07-28T01:54:56.568Z,100.00
2022-07-28T01:57:59.068Z,100.00
2022-07-28T02:01:03.566Z,100.00
2022-07-28T02:04:06.806Z,100.00
2022-07-28T02:07:10.474Z,100.00
2022-07-28T02:10:15.772Z,100.00
2022-07-28T02:13:17.432Z,100.00
2022-07-28T02:16:22.851Z,100.00
2022-07-28T02:19:27.103Z,100.00
2022-07-28T02:22:28.813Z,100.00
2022-07-28T02:25:30.792Z,100.00
2022-07-28T02:28:32.402Z,100.00
2022-07-28T02:31:51.623Z,100.00
2022-07-28T02:35:02.838Z,100.00
2022-07-28T02:38:18.946Z,100.00
2022-07-28T02:41:33.489Z,100.00
2022-07-28T02:44:42.686Z,100.00
2022-07-28T02:47:48.754Z,100.00
2022-07-28T02:50:51.320Z,100.00
2022-07-28T02:53:53.482Z,100.00
2022-07-28T02:56:57.773Z,100.00
2022-07-28T02:59:59.577Z,100.00
2022-07-28T03:03:01.846Z,100.00
2022-07-28T03:06:03.612Z,100.00
2022-07-28T03:09:05.269Z,100.00
2022-07-28T03:12:10.324Z,100.00
2022-07-28T03:15:12.004Z,100.00
2022-07-28T03:18:13.606Z,100.00
2022-07-28T03:21:15.145Z,100.00
2022-07-28T03:24:18.572Z,100.00
2022-07-28T03:27:19.920Z,100.00
2022-07-28T03:30:27.082Z,100.00
2022-07-28T03:33:29.009Z,100.00
2022-07-28T03:36:39.826Z,100.00
2022-07-28T03:39:48.001Z,100.00
2022-07-28T03:42:50.891Z,100.00
2022-07-28T03:45:52.630Z,100.00
2022-07-28T03:48:54.427Z,100.00
2022-07-28T03:51:55.943Z,100.00
2022-07-28T03:54:57.421Z,100.00
2022-07-28T03:57:59.133Z,100.00
2022-07-28T04:01:00.655Z,100.00
2022-07-28T04:04:02.185Z,100.00
2022-07-28T04:07:03.723Z,100.00
2022-07-28T04:10:09.503Z,100.00
2022-07-28T04:13:11.042Z,100.00
2022-07-28T04:16:12.588Z,100.00
2022-07-28T04:19:14.509Z,100.00
2022-07-28T04:22:16.149Z,100.00
2022-07-28T04:25:20.106Z,100.00
2022-07-28T04:28:21.741Z,100.00
2022-07-28T04:31:23.269Z,100.00
2022-07-28T04:34:24.770Z,100.00
2022-07-28T04:37:27.262Z,100.00
2022-07-28T04:40:34.569Z,100.00
2022-07-28T04:43:37.441Z,100.00
2022-07-28T04:46:38.982Z,100.00
2022-07-28T04:49:41.200Z,100.00
2022-07-28T04:52:42.825Z,100.00
2022-07-28T04:55:44.395Z,100.00
2022-07-28T04:58:46.164Z,100.00
2022-07-28T05:01:49.000Z,100.00
2022-07-28T05:04:50.626Z,100.00
2022-07-28T05:07:52.164Z,100.00
2022-07-28T05:10:55.732Z,100.00
2022-07-28T05:13:57.185Z,100.00
2022-07-28T05:16:58.701Z,100.00
2022-07-28T05:20:00.255Z,100.00
2022-07-28T05:23:05.062Z,100.00
2022-07-28T05:26:07.134Z,100.00
2022-07-28T05:29:08.665Z,100.00
2022-07-28T05:32:16.575Z,100.00
2022-07-28T05:35:19.214Z,100.00
2022-07-28T05:38:21.539Z,100.00
2022-07-28T05:41:23.120Z,100.00
2022-07-28T05:44:24.609Z,100.00
2022-07-28T05:47:26.063Z,100.00
2022-07-28T05:50:27.563Z,100.00
2022-07-28T05:53:29.134Z,100.00
2022-07-28T05:56:30.669Z,100.00
2022-07-28T05:59:32.118Z,100.00
2022-07-28T06:02:33.838Z,100.00
2022-07-28T06:05:36.735Z,100.00
2022-07-28T06:09:00.193Z,100.00
2022-07-28T06:12:01.686Z,100.00
2022-07-28T06:15:05.465Z,100.00
2022-07-28T06:18:07.511Z,100.00
2022-07-28T06:21:09.009Z,100.00
2022-07-28T06:24:10.611Z,100.00
2022-07-28T06:27:12.504Z,100.00
2022-07-28T06:30:15.158Z,100.00
2022-07-28T06:33:17.517Z,100.00
2022-07-28T06:36:19.088Z,100.00
2022-07-28T06:39:20.570Z,100.00
2022-07-28T06:42:23.651Z,100.00
2022-07-28T06:45:25.260Z,100.00
2022-07-28T06:48:29.277Z,100.00
2022-07-28T06:51:31.823Z,100.00
2022-07-28T06:54:33.414Z,100.00
2022-07-28T06:57:35.676Z,100.00
2022-07-28T07:00:37.314Z,100.00
2022-07-28T07:03:38.805Z,100.00
2022-07-28T07:06:40.279Z,100.00
2022-07-28T07:09:42.360Z,100.00
2022-07-28T07:12:43.881Z,100.00
2022-07-28T07:15:45.545Z,100.00
2022-07-28T07:18:48.666Z,100.00
2022-07-28T07:21:50.925Z,100.00
2022-07-28T07:24:56.559Z,100.00
2022-07-28T07:27:58.755Z,100.00
2022-07-28T07:31:00.425Z,100.00
2022-07-28T07:34:02.227Z,100.00
2022-07-28T07:37:03.696Z,100.00
2022-07-28T07:40:06.633Z,100.00
2022-07-28T07:43:08.285Z,100.00
2022-07-28T07:46:09.897Z,100.00
2022-07-28T07:49:11.518Z,100.00
2022-07-28T07:52:13.627Z,100.00
2022-07-28T07:55:15.839Z,100.00
2022-07-28T07:58:17.690Z,100.00
2022-07-28T08:01:19.228Z,100.00
2022-07-28T08:04:25.283Z,100.00
2022-07-28T08:07:27.007Z,100.00
2022-07-28T08:10:28.565Z,100.00
2022-07-28T08:13:30.029Z,100.00
2022-07-28T08:16:31.546Z,100.00
2022-07-28T08:19:33.041Z,100.00
2022-07-28T08:22:34.496Z,100.00
2022-07-28T08:25:38.317Z,100.00
2022-07-28T08:28:39.814Z,100.00
2022-07-28T08:31:41.325Z,100.00
2022-07-28T08:34:42.951Z,100.00
2022-07-28T08:37:45.110Z,100.00
2022-07-28T08:40:49.847Z,100.00
2022-07-28T08:43:52.759Z,100.00
2022-07-28T08:46:54.551Z,100.00
2022-07-28T08:49:59.350Z,100.00
2022-07-28T08:53:01.342Z,100.00
2022-07-28T08:56:12.239Z,100.00
2022-07-28T08:59:14.299Z,100.00
2022-07-28T09:02:17.344Z,100.00
2022-07-28T09:05:24.026Z,100.00
2022-07-28T09:08:26.202Z,100.00
2022-07-28T09:11:28.655Z,100.00
2022-07-28T09:14:30.207Z,98.68
2022-07-28T09:17:32.829Z,97.26
2022-07-28T09:20:36.681Z,98.94
2022-07-28T09:23:46.157Z,96.56
2022-07-28T09:27:20.320Z,96.12
2022-07-28T09:30:33.097Z,95.32
2022-07-28T09:33:42.644Z,93.46
2022-07-28T09:36:45.284Z,93.76
2022-07-28T09:39:47.949Z,94.54
2022-07-28T09:42:50.211Z,94.05
2022-07-28T09:46:03.666Z,93.67
2022-07-28T09:49:05.324Z,93.46
2022-07-28T09:52:07.006Z,90.67
2022-07-28T09:55:10.982Z,89.99
2022-07-28T09:58:12.459Z,87.89
2022-07-28T10:01:20.920Z,88.75
2022-07-28T10:04:37.708Z,86.64
2022-07-28T10:07:52.420Z,87.23
2022-07-28T10:11:00.624Z,86.19
2022-07-28T10:14:03.371Z,85.15
2022-07-28T10:17:06.321Z,84.59
2022-07-28T10:20:08.787Z,81.88
2022-07-28T10:23:12.695Z,83.67
2022-07-28T10:26:15.739Z,84.70
2022-07-28T10:29:20.201Z,84.30
2022-07-28T10:32:22.266Z,80.20
2022-07-28T10:35:26.523Z,75.79
2022-07-28T10:38:34.339Z,74.09
2022-07-28T10:41:41.097Z,72.74
2022-07-28T10:44:43.419Z,73.02
2022-07-28T10:47:46.066Z,75.07
2022-07-28T10:50:48.675Z,69.65
2022-07-28T10:54:01.100Z,67.64
2022-07-28T10:57:06.504Z,62.50
2022-07-28T11:00:25.838Z,63.45
2022-07-28T11:03:43.659Z,64.61
2022-07-28T11:06:46.959Z,58.90
2022-07-28T11:09:48.825Z,58.33
2022-07-28T11:12:55.963Z,58.55
2022-07-28T11:16:18.543Z,59.41
2022-07-28T11:19:40.545Z,57.96
2022-07-28T11:22:41.713Z,57.09
2022-07-28T11:25:43.254Z,56.37
2022-07-28T11:29:11.002Z,53.47
2022-07-28T11:32:13.118Z,51.20
2022-07-28T11:35:14.742Z,49.79
2022-07-28T11:38:16.394Z,51.90
2022-07-28T11:41:30.628Z,50.26
2022-07-28T11:44:32.980Z,50.63
2022-07-28T11:47:34.529Z,52.64
2022-07-28T11:50:36.030Z,50.60
2022-07-28T11:53:38.564Z,50.18
2022-07-28T11:56:40.127Z,49.25
2022-07-28T11:59:43.533Z,50.51
2022-07-28T12:02:49.302Z,45.81
2022-07-28T12:05:57.259Z,46.02
2022-07-28T12:09:02.211Z,47.31
2022-07-28T12:12:04.294Z,48.70
2022-07-28T12:15:07.451Z,46.57
2022-07-28T12:18:10.946Z,46.88
2022-07-28T12:21:12.534Z,45.52
2022-07-28T12:24:18.858Z,46.96
2022-07-28T12:27:29.161Z,47.53
2022-07-28T12:30:33.644Z,46.18
2022-07-28T12:33:36.461Z,46.02
2022-07-28T12:36:39.119Z,45.79
2022-07-28T12:39:43.310Z,45.89
2022-07-28T12:42:45.891Z,47.50
2022-07-28T12:45:54.003Z,47.70
2022-07-28T12:48:57.426Z,45.40
2022-07-28T12:52:00.527Z,44.75
2022-07-28T12:55:02.001Z,45.77
2022-07-28T12:58:04.838Z,44.87
2022-07-28T13:01:09.127Z,45.23
2022-07-28T13:04:11.321Z,45.72
2022-07-28T13:07:23.108Z,44.47
2022-07-28T13:10:27.499Z,45.03
2022-07-28T13:13:29.016Z,45.86
2022-07-28T13:16:31.834Z,44.47
2022-07-28T13:19:33.722Z,45.32
2022-07-28T13:22:35.758Z,44.91
2022-07-28T13:25:37.511Z,44.93
2022-07-28T13:28:39.578Z,45.45
2022-07-28T13:31:41.101Z,44.57
2022-07-28T13:34:42.944Z,44.84
2022-07-28T13:37:44.800Z,43.57
2022-07-28T13:40:46.420Z,43.25
2022-07-28T13:43:49.061Z,42.00
2022-07-28T13:46:55.276Z,41.75
2022-07-28T13:49:57.520Z,42.07
2022-07-28T13:52:59.195Z,41.15
2022-07-28T13:56:00.695Z,40.14
2022-07-28T13:59:02.254Z,40.08
2022-07-28T14:02:05.189Z,39.11
2022-07-28T14:05:06.765Z,38.96
2022-07-28T14:08:08.564Z,39.04
2022-07-28T14:11:12.135Z,39.59
2022-07-28T14:14:16.866Z,40.32
2022-07-28T14:17:43.475Z,39.72
2022-07-28T14:20:44.617Z,39.56
2022-07-28T14:23:50.157Z,38.70
2022-07-28T14:26:51.653Z,37.70
2022-07-28T14:29:53.225Z,36.75
2022-07-28T14:32:56.875Z,38.23
2022-07-28T14:35:58.539Z,37.76
2022-07-28T14:39:00.060Z,37.73
2022-07-28T14:42:01.579Z,38.38
2022-07-28T14:45:05.445Z,39.03
2022-07-28T14:48:06.941Z,38.55
2022-07-28T14:51:11.613Z,37.24
2022-07-28T14:54:13.732Z,35.36
2022-07-28T14:57:20.219Z,35.90
2022-07-28T15:00:28.280Z,36.58
2022-07-28T15:03:35.719Z,35.28
2022-07-28T15:06:37.813Z,34.26
2022-07-28T15:09:43.404Z,36.61
2022-07-28T15:12:47.725Z,33.83
2022-07-28T15:15:49.449Z,34.80
2022-07-28T15:18:52.377Z,35.55
2022-07-28T15:21:53.910Z,34.76
2022-07-28T15:24:55.376Z,34.57
2022-07-28T15:27:57.770Z,35.61
2022-07-28T15:31:01.459Z,34.03
2022-07-28T15:34:03.078Z,34.57
2022-07-28T15:37:05.933Z,35.59
2022-07-28T15:40:12.900Z,34.17
2022-07-28T15:43:14.392Z,35.74
2022-07-28T15:46:15.960Z,35.55
2022-07-28T15:49:17.654Z,36.57
2022-07-28T15:52:19.134Z,35.42
2022-07-28T15:55:21.354Z,35.19
2022-07-28T15:58:23.718Z,35.32
2022-07-28T16:01:28.422Z,35.09
2022-07-28T16:04:29.949Z,35.50
2022-07-28T16:07:33.218Z,34.78
2022-07-28T16:10:34.736Z,35.27
2022-07-28T16:13:37.592Z,34.89
2022-07-28T16:16:39.192Z,35.17
2022-07-28T16:19:49.986Z,35.44
2022-07-28T16:22:51.950Z,35.37
2022-07-28T16:25:53.521Z,35.89
2022-07-28T16:28:54.983Z,38.00
2022-07-28T16:31:56.541Z,35.74
2022-07-28T16:34:58.097Z,34.11
2022-07-28T16:38:05.058Z,34.79
2022-07-28T16:41:06.524Z,34.64
2022-07-28T16:44:08.734Z,34.61
2022-07-28T16:47:12.240Z,34.21
2022-07-28T16:50:16.053Z,35.55
2022-07-28T16:53:17.919Z,34.09
2022-07-28T16:56:19.391Z,35.79
2022-07-28T16:59:21.774Z,36.57
2022-07-28T17:02:23.454Z,37.65
2022-07-28T17:05:24.958Z,36.99
2022-07-28T17:08:26.832Z,37.54
2022-07-28T17:11:28.422Z,37.54
2022-07-28T17:14:29.997Z,39.28
2022-07-28T17:17:31.902Z,38.81
2022-07-28T17:20:33.398Z,37.97
2022-07-28T17:23:36.391Z,39.05
2022-07-28T17:29:59.550Z,38.28
2022-07-28T17:33:08.138Z,37.94
2022-07-28T17:36:10.319Z,40.62
2022-07-28T17:39:12.915Z,39.58
2022-07-28T17:42:14.385Z,40.28
2022-07-28T17:45:16.205Z,41.42
2022-07-28T17:48:18.574Z,40.86
2022-07-28T17:51:20.082Z,40.79
2022-07-28T17:54:25.011Z,41.01
2022-07-28T17:57:27.656Z,40.50
2022-07-28T18:00:32.057Z,40.56
2022-07-28T18:03:59.521Z,40.65
2022-07-28T18:06:55.045Z,40.60
2022-07-28T18:09:56.550Z,39.73
2022-07-28T18:12:58.048Z,40.22
2022-07-28T18:15:59.774Z,41.08
2022-07-28T18:19:04.389Z,40.24
2022-07-28T18:22:05.851Z,40.52
2022-07-28T18:25:09.117Z,40.37
2022-07-28T18:28:11.402Z,40.74
2022-07-28T18:31:13.641Z,41.82
2022-07-28T18:34:15.748Z,41.42
2022-07-28T18:37:17.557Z,41.16
2022-07-28T18:40:21.492Z,41.81
2022-07-28T18:43:23.588Z,41.77
2022-07-28T18:46:27.235Z,42.96
2022-07-28T18:49:29.370Z,42.76
2022-07-28T18:52:46.705Z,43.63
2022-07-28T18:55:48.142Z,43.44
2022-07-28T18:58:51.850Z,43.92
2022-07-28T19:01:56.009Z,43.88
2022-07-28T19:04:59.949Z,44.61
2022-07-28T19:08:01.509Z,45.07
2022-07-28T19:11:05.348Z,44.69
2022-07-28T19:14:11.718Z,44.28
2022-07-28T19:17:16.761Z,44.33
2022-07-28T19:27:30.734Z,44.99
2022-07-28T19:30:33.382Z,45.99
2022-07-28T19:33:35.671Z,45.79
2022-07-28T19:36:41.489Z,47.49
2022-07-28T19:39:45.822Z,48.57
2022-07-28T19:42:48.426Z,52.54
2022-07-28T19:45:51.894Z,57.83
2022-07-28T19:48:54.053Z,58.77
2022-07-28T19:51:59.306Z,70.04
2022-07-28T20:02:14.156Z,94.97
2022-07-28T20:05:16.198Z,94.50
2022-07-28T20:08:17.788Z,94.72
2022-07-28T20:11:19.401Z,98.11
2022-07-28T20:14:20.836Z,99.43
2022-07-28T20:17:37.403Z,100.00
2022-07-28T20:20:40.710Z,100.00
2022-07-28T20:23:42.258Z,100.00
2022-07-28T20:26:45.467Z,100.00
2022-07-28T20:29:47.125Z,100.00
2022-07-28T20:32:48.670Z,100.00
2022-07-28T20:35:52.748Z,100.00
2022-07-28T20:38:58.208Z,100.00
2022-07-28T20:41:59.668Z,100.00
2022-07-28T20:45:01.182Z,100.00
2022-07-28T20:48:02.758Z,100.00
2022-07-28T20:51:04.248Z,100.00
2022-07-28T20:54:05.791Z,100.00
2022-07-28T20:57:07.299Z,100.00
2022-07-28T21:00:09.282Z,100.00
2022-07-28T21:03:10.734Z,100.00
2022-07-28T21:06:12.252Z,100.00
2022-07-28T21:09:16.478Z,100.00
2022-07-28T21:12:18.014Z,100.00
2022-07-28T21:15:20.711Z,100.00
2022-07-28T21:18:22.190Z,100.00
2022-07-28T21:21:24.003Z,100.00
2022-07-28T21:24:25.493Z,100.00
2022-07-28T21:27:27.043Z,100.00
2022-07-28T21:30:28.563Z,100.00
2022-07-28T21:33:30.197Z,100.00
2022-07-28T21:36:31.959Z,100.00
2022-07-28T21:39:34.440Z,100.00
2022-07-28T21:42:35.974Z,100.00
2022-07-28T21:45:37.513Z,100.00
2022-07-28T21:48:39.628Z,100.00
2022-07-28T21:51:41.362Z,100.00
2022-07-28T21:54:42.916Z,100.00
2022-07-28T21:57:44.812Z,100.00
2022-07-28T22:00:47.440Z,100.00
2022-07-28T22:03:51.043Z,100.00
2022-07-28T22:06:52.666Z,100.00
2022-07-28T22:09:54.086Z,100.00
2022-07-28T22:12:57.059Z,100.00
2022-07-28T22:16:00.869Z,100.00
2022-07-28T22:19:03.738Z,100.00
2022-07-28T22:22:05.257Z,100.00
2022-07-28T22:25:07.621Z,100.00
2022-07-28T22:28:09.655Z,100.00
2022-07-28T22:31:15.725Z,100.00
2022-07-28T22:34:17.724Z,100.00
2022-07-28T22:37:21.308Z,100.00
2022-07-28T22:40:22.674Z,100.00
2022-07-28T22:43:24.141Z,100.00
2022-07-28T22:46:25.687Z,100.00
2022-07-28T22:49:27.864Z,100.00
2022-07-28T22:52:30.032Z,100.00
2022-07-28T22:55:31.883Z,100.00
2022-07-28T22:58:33.349Z,100.00
2022-07-28T23:01:35.920Z,100.00
2022-07-28T23:04:37.463Z,100.00
2022-07-28T23:07:53.568Z,100.00
2022-07-28T23:10:59.232Z,100.00
2022-07-28T23:14:00.891Z,100.00
2022-07-28T23:17:02.499Z,100.00
2022-07-28T23:20:05.546Z,100.00
2022-07-28T23:23:07.445Z,100.00
2022-07-28T23:26:09.145Z,100.00
2022-07-28T23:29:10.687Z,100.00
2022-07-28T23:32:16.932Z,100.00
2022-07-28T23:35:19.135Z,100.00
2022-07-28T23:38:20.672Z,100.00
2022-07-28T23:41:22.126Z,100.00
2022-07-28T23:44:23.681Z,100.00
2022-07-28T23:47:25.151Z,100.00
2022-07-28T23:50:27.062Z,100.00
2022-07-28T23:53:28.567Z,100.00
2022-07-28T23:56:30.354Z,100.00
2022-07-28T23:59:32.173Z,100.00
